createdAt,value
2019-03-16T00:02:37.497Z,39.84
2019-03-16T00:05:43.325Z,40.20
2019-03-16T00:08:49.070Z,40.37
2019-03-16T00:11:54.930Z,40.45
2019-03-16T00:15:00.710Z,40.60
2019-03-16T00:18:07.767Z,40.41
2019-03-16T00:21:13.555Z,40.37
2019-03-16T00:24:19.257Z,40.29
2019-03-16T00:27:25.120Z,40.20
2019-03-16T00:30:30.846Z,39.76
2019-03-16T00:33:36.616Z,39.75
2019-03-16T00:36:42.372Z,39.49
2019-03-16T00:39:48.199Z,39.47
2019-03-16T00:42:53.913Z,39.54
2019-03-16T00:45:59.682Z,39.80
2019-03-16T00:49:06.508Z,39.78
2019-03-16T00:52:12.328Z,39.88
2019-03-16T00:55:19.176Z,40.08
2019-03-16T00:58:24.953Z,39.98
2019-03-16T01:01:30.745Z,40.60
2019-03-16T01:04:36.485Z,40.68
2019-03-16T01:07:42.312Z,41.38
2019-03-16T01:10:48.037Z,41.25
2019-03-16T01:13:54.761Z,41.01
2019-03-16T01:17:00.492Z,40.86
2019-03-16T01:20:06.877Z,40.29
2019-03-16T01:23:13.637Z,40.34
2019-03-16T01:26:19.400Z,40.11
2019-03-16T01:29:25.128Z,40.07
2019-03-16T01:32:40.173Z,39.65
2019-03-16T01:35:38.282Z,39.49
2019-03-16T01:38:44.210Z,39.44
2019-03-16T01:41:50.075Z,39.52
2019-03-16T01:44:55.835Z,39.34
2019-03-16T01:48:01.565Z,39.11
2019-03-16T01:51:07.280Z,39.32
2019-03-16T01:54:12.988Z,39.20
2019-03-16T01:57:18.797Z,38.76
2019-03-16T02:00:24.568Z,38.42
2019-03-16T02:03:30.306Z,38.43
2019-03-16T02:06:36.034Z,38.34
2019-03-16T02:09:41.774Z,38.60
2019-03-16T02:12:47.601Z,38.90
2019-03-16T02:15:53.360Z,38.92
2019-03-16T02:18:59.279Z,38.61
2019-03-16T02:22:04.997Z,38.83
2019-03-16T02:25:10.914Z,38.54
2019-03-16T02:28:16.733Z,38.89
2019-03-16T02:31:22.464Z,39.51
2019-03-16T02:34:28.216Z,39.40
2019-03-16T02:37:34.011Z,39.16
2019-03-16T02:40:39.773Z,39.65
2019-03-16T02:43:45.525Z,39.28
2019-03-16T02:46:51.551Z,39.00
2019-03-16T02:49:57.280Z,38.71
2019-03-16T02:53:03.034Z,38.79
2019-03-16T02:56:08.767Z,38.80
2019-03-16T02:59:14.508Z,38.67
2019-03-16T03:02:20.230Z,38.86
2019-03-16T03:05:26.006Z,39.05
2019-03-16T03:08:31.890Z,38.98
2019-03-16T03:11:37.663Z,39.01
2019-03-16T03:14:43.500Z,39.12
2019-03-16T03:17:50.545Z,39.67
2019-03-16T03:20:56.305Z,39.38
2019-03-16T03:24:02.065Z,39.15
2019-03-16T03:27:07.866Z,39.65
2019-03-16T03:30:13.878Z,39.59
2019-03-16T03:33:19.593Z,39.15
2019-03-16T03:36:25.493Z,39.52
2019-03-16T03:39:31.507Z,40.41
2019-03-16T03:42:37.270Z,39.89
2019-03-16T03:45:43.056Z,39.56
2019-03-16T03:48:48.968Z,39.49
2019-03-16T03:51:54.769Z,39.25
2019-03-16T03:55:00.924Z,39.36
2019-03-16T03:58:06.952Z,39.58
2019-03-16T04:01:12.993Z,39.34
2019-03-16T04:04:18.879Z,39.10
2019-03-16T04:07:24.668Z,38.96
2019-03-16T04:10:30.486Z,39.21
2019-03-16T04:13:36.296Z,39.14
2019-03-16T04:16:42.107Z,39.68
2019-03-16T04:19:47.941Z,39.64
2019-03-16T04:22:53.782Z,39.51
2019-03-16T04:25:59.521Z,39.76
2019-03-16T04:29:05.316Z,39.32
2019-03-16T04:32:11.035Z,39.11
2019-03-16T04:35:16.825Z,38.68
2019-03-16T04:38:22.609Z,38.90
2019-03-16T04:41:28.362Z,38.94
2019-03-16T04:44:34.069Z,39.16
2019-03-16T04:47:39.836Z,39.07
2019-03-16T04:50:46.572Z,39.15
2019-03-16T04:53:52.323Z,38.77
2019-03-16T04:56:58.188Z,38.61
2019-03-16T05:00:04.609Z,38.82
2019-03-16T05:03:11.569Z,38.61
2019-03-16T05:06:17.378Z,38.46
2019-03-16T05:09:23.159Z,38.44
2019-03-16T05:12:28.904Z,38.38
2019-03-16T05:15:34.665Z,38.36
2019-03-16T05:18:40.565Z,38.09
2019-03-16T05:21:47.288Z,38.09
2019-03-16T05:24:53.103Z,38.03
2019-03-16T05:27:58.873Z,37.97
2019-03-16T05:31:04.640Z,38.09
2019-03-16T05:34:10.412Z,38.07
2019-03-16T05:37:16.121Z,38.05
2019-03-16T05:40:21.832Z,38.20
2019-03-16T05:43:27.535Z,38.08
2019-03-16T05:46:33.246Z,38.11
2019-03-16T05:49:38.977Z,38.19
2019-03-16T05:52:44.757Z,37.79
2019-03-16T05:55:50.457Z,37.49
2019-03-16T05:58:56.166Z,37.49
2019-03-16T06:02:01.899Z,37.49
2019-03-16T06:05:10.768Z,37.80
2019-03-16T06:08:15.413Z,37.60
2019-03-16T06:11:21.134Z,37.67
2019-03-16T06:14:27.017Z,38.47
2019-03-16T06:17:32.813Z,37.82
2019-03-16T06:20:38.659Z,37.64
2019-03-16T06:23:44.408Z,37.26
2019-03-16T06:26:50.170Z,36.76
2019-03-16T06:29:55.995Z,36.89
2019-03-16T06:33:05.451Z,36.87
2019-03-16T06:36:11.221Z,37.21
2019-03-16T06:39:16.997Z,36.84
2019-03-16T06:42:22.723Z,37.46
2019-03-16T06:45:28.477Z,37.84
2019-03-16T06:48:34.196Z,37.63
2019-03-16T06:51:39.934Z,37.43
2019-03-16T06:54:45.679Z,38.08
2019-03-16T06:57:51.374Z,37.28
2019-03-16T07:00:58.254Z,36.85
2019-03-16T07:04:04.111Z,36.48
2019-03-16T07:07:09.850Z,35.91
2019-03-16T07:10:15.666Z,35.66
2019-03-16T07:13:21.425Z,35.02
2019-03-16T07:16:27.272Z,34.12
2019-03-16T07:19:34.021Z,32.95
2019-03-16T07:22:39.868Z,32.66
2019-03-16T07:25:45.611Z,31.91
2019-03-16T07:28:51.343Z,32.32
2019-03-16T07:31:57.108Z,31.90
2019-03-16T07:35:02.980Z,31.29
2019-03-16T07:38:08.734Z,31.84
2019-03-16T07:41:14.772Z,31.12
2019-03-16T07:44:20.525Z,30.41
2019-03-16T07:47:26.384Z,29.78
2019-03-16T07:50:32.107Z,29.77
2019-03-16T07:53:37.862Z,29.87
2019-03-16T07:56:43.577Z,30.03
2019-03-16T07:59:49.731Z,30.33
2019-03-16T08:02:56.012Z,30.31
2019-03-16T08:06:01.899Z,29.86
2019-03-16T08:09:08.160Z,30.11
2019-03-16T08:12:13.979Z,30.11
2019-03-16T08:15:19.796Z,30.39
2019-03-16T08:18:25.759Z,30.25
2019-03-16T08:21:31.588Z,29.94
2019-03-16T08:24:37.306Z,29.69
2019-03-16T08:27:53.675Z,29.84
2019-03-16T08:30:50.609Z,30.14
2019-03-16T08:33:56.379Z,29.89
2019-03-16T08:37:02.257Z,30.13
2019-03-16T08:40:08.404Z,28.54
2019-03-16T08:43:15.137Z,29.39
2019-03-16T08:46:20.957Z,29.32
2019-03-16T08:49:26.875Z,28.24
2019-03-16T08:52:32.698Z,29.33
2019-03-16T08:55:38.558Z,28.52
2019-03-16T08:58:44.256Z,27.95
2019-03-16T09:01:50.000Z,28.27
2019-03-16T09:04:55.862Z,26.02
2019-03-16T09:08:01.619Z,26.28
2019-03-16T09:11:07.508Z,26.01
2019-03-16T09:14:13.394Z,25.91
2019-03-16T09:17:19.088Z,24.68
2019-03-16T09:20:24.878Z,24.68
2019-03-16T09:23:31.796Z,24.88
2019-03-16T09:26:41.358Z,24.56
2019-03-16T09:29:47.171Z,24.30
2019-03-16T09:32:52.982Z,23.49
2019-03-16T09:35:58.704Z,23.85
2019-03-16T09:39:06.107Z,23.32
2019-03-16T09:42:11.820Z,24.42
2019-03-16T09:45:17.622Z,23.55
2019-03-16T09:48:23.331Z,23.65
2019-03-16T09:51:29.021Z,23.84
2019-03-16T09:54:34.775Z,23.54
2019-03-16T09:57:40.456Z,24.08
2019-03-16T10:00:46.209Z,24.33
2019-03-16T10:03:51.934Z,24.86
2019-03-16T10:06:57.674Z,24.49
2019-03-16T10:10:03.401Z,24.93
2019-03-16T10:13:09.109Z,25.19
2019-03-16T10:16:14.905Z,25.72
2019-03-16T10:19:20.700Z,25.95
2019-03-16T10:22:26.427Z,26.03
2019-03-16T10:25:32.156Z,26.22
2019-03-16T10:28:43.583Z,25.13
2019-03-16T10:31:45.291Z,24.95
2019-03-16T10:34:51.046Z,24.79
2019-03-16T10:37:56.759Z,24.15
2019-03-16T10:41:02.558Z,24.32
2019-03-16T10:44:08.244Z,24.77
2019-03-16T10:47:14.141Z,24.32
2019-03-16T10:50:19.889Z,24.13
2019-03-16T10:53:25.649Z,24.30
2019-03-16T10:56:31.390Z,24.33
2019-03-16T10:59:37.169Z,24.30
2019-03-16T11:02:42.924Z,24.47
2019-03-16T11:05:48.639Z,24.96
2019-03-16T11:08:54.449Z,24.82
2019-03-16T11:12:00.226Z,25.09
2019-03-16T11:15:06.232Z,24.42
2019-03-16T11:18:12.037Z,23.97
2019-03-16T11:21:17.751Z,23.99
2019-03-16T11:24:23.598Z,24.02
2019-03-16T11:27:29.368Z,24.04
2019-03-16T11:30:35.185Z,23.91
2019-03-16T11:33:40.873Z,24.00
2019-03-16T11:36:46.671Z,24.15
2019-03-16T11:39:52.366Z,24.16
2019-03-16T11:42:58.105Z,24.20
2019-03-16T11:46:03.854Z,24.34
2019-03-16T11:49:09.613Z,24.88
2019-03-16T11:52:15.330Z,25.01
2019-03-16T11:55:21.074Z,24.78
2019-03-16T11:58:26.817Z,24.87
2019-03-16T12:01:32.530Z,24.74
2019-03-16T12:04:38.295Z,24.58
2019-03-16T12:07:44.020Z,24.89
2019-03-16T12:10:49.877Z,24.95
2019-03-16T12:13:55.552Z,25.06
2019-03-16T12:17:01.294Z,25.10
2019-03-16T12:20:07.813Z,25.10
2019-03-16T12:23:13.572Z,25.27
2019-03-16T12:26:20.275Z,25.36
2019-03-16T12:29:34.083Z,25.27
2019-03-16T12:32:33.600Z,25.31
2019-03-16T12:35:39.351Z,25.22
2019-03-16T12:38:45.101Z,25.26
2019-03-16T12:41:50.905Z,25.54
2019-03-16T12:44:56.864Z,25.25
2019-03-16T12:48:02.636Z,25.45
2019-03-16T12:51:08.443Z,25.57
2019-03-16T12:54:14.375Z,25.83
2019-03-16T12:57:20.079Z,25.80
2019-03-16T13:00:25.875Z,25.90
2019-03-16T13:03:31.608Z,25.82
2019-03-16T13:06:37.324Z,25.98
2019-03-16T13:09:43.035Z,26.23
2019-03-16T13:12:48.759Z,26.29
2019-03-16T13:15:54.512Z,26.39
2019-03-16T13:19:00.231Z,26.64
2019-03-16T13:22:07.018Z,26.56
2019-03-16T13:25:13.916Z,26.47
2019-03-16T13:28:19.649Z,26.72
2019-03-16T13:31:25.447Z,26.82
2019-03-16T13:34:31.211Z,27.00
2019-03-16T13:37:37.025Z,27.41
2019-03-16T13:40:42.945Z,27.49
2019-03-16T13:43:48.706Z,27.64
2019-03-16T13:46:54.431Z,27.69
2019-03-16T13:50:00.340Z,28.17
2019-03-16T13:53:06.067Z,28.19
2019-03-16T13:56:12.047Z,28.32
2019-03-16T13:59:18.039Z,28.53
2019-03-16T14:02:24.151Z,28.62
2019-03-16T14:05:31.000Z,28.70
2019-03-16T14:08:36.755Z,28.71
2019-03-16T14:11:42.507Z,28.71
2019-03-16T14:14:48.234Z,28.88
2019-03-16T14:17:53.963Z,29.06
2019-03-16T14:21:00.000Z,29.18
2019-03-16T14:24:05.880Z,29.10
2019-03-16T14:27:12.749Z,28.99
2019-03-16T14:30:29.445Z,29.04
2019-03-16T14:33:27.182Z,28.86
2019-03-16T14:36:32.877Z,28.79
2019-03-16T14:39:38.569Z,28.27
2019-03-16T14:42:44.575Z,27.79
2019-03-16T14:45:50.624Z,27.79
2019-03-16T14:48:56.526Z,27.67
2019-03-16T14:52:02.262Z,27.61
2019-03-16T14:55:08.213Z,27.63
2019-03-16T14:58:15.100Z,27.85
2019-03-16T15:01:20.848Z,28.05
2019-03-16T15:04:26.699Z,28.32
2019-03-16T15:07:32.551Z,28.70
2019-03-16T15:10:38.298Z,29.01
2019-03-16T15:13:44.053Z,29.24
2019-03-16T15:16:51.021Z,29.21
2019-03-16T15:19:56.802Z,29.23
2019-03-16T15:23:02.648Z,29.24
2019-03-16T15:26:08.432Z,29.37
2019-03-16T15:29:14.233Z,29.52
2019-03-16T15:32:20.038Z,29.70
2019-03-16T15:35:25.998Z,29.87
2019-03-16T15:38:31.815Z,29.87
2019-03-16T15:41:37.701Z,29.89
2019-03-16T15:44:43.582Z,29.93
2019-03-16T15:47:49.326Z,30.16
2019-03-16T15:50:55.144Z,30.38
2019-03-16T15:54:00.929Z,30.55
2019-03-16T15:57:07.220Z,30.46
2019-03-16T16:00:13.851Z,30.54
2019-03-16T16:03:19.939Z,30.66
2019-03-16T16:06:25.843Z,30.72
2019-03-16T16:09:31.688Z,30.94
2019-03-16T16:12:37.556Z,31.15
2019-03-16T16:15:43.429Z,31.32
2019-03-16T16:18:49.415Z,31.32
2019-03-16T16:21:55.561Z,31.60
2019-03-16T16:25:01.322Z,31.80
2019-03-16T16:28:07.154Z,31.89
2019-03-16T16:31:16.645Z,32.23
2019-03-16T16:34:20.591Z,32.34
2019-03-16T16:37:26.552Z,32.46
2019-03-16T16:40:32.288Z,32.61
2019-03-16T16:43:38.037Z,33.04
2019-03-16T16:46:43.891Z,33.14
2019-03-16T16:49:49.734Z,33.02
2019-03-16T16:52:55.807Z,32.82
2019-03-16T16:56:01.537Z,32.85
2019-03-16T16:59:07.334Z,32.74
2019-03-16T17:02:13.049Z,32.78
2019-03-16T17:05:18.997Z,32.68
2019-03-16T17:08:25.874Z,32.69
2019-03-16T17:11:31.721Z,32.74
2019-03-16T17:14:37.657Z,32.76
2019-03-16T17:17:43.588Z,32.81
2019-03-16T17:20:49.374Z,32.92
2019-03-16T17:23:55.207Z,32.96
2019-03-16T17:27:01.126Z,32.91
2019-03-16T17:30:13.057Z,32.84
2019-03-16T17:33:18.935Z,32.86
2019-03-16T17:36:24.676Z,32.88
2019-03-16T17:39:30.566Z,32.88
2019-03-16T17:42:36.454Z,32.79
2019-03-16T17:45:42.193Z,32.79
2019-03-16T17:48:48.093Z,32.87
2019-03-16T17:51:53.937Z,32.71
2019-03-16T17:54:59.750Z,33.01
2019-03-16T17:58:05.660Z,33.46
2019-03-16T18:01:11.497Z,33.15
2019-03-16T18:04:17.351Z,33.15
2019-03-16T18:07:23.132Z,33.67
2019-03-16T18:10:29.132Z,33.67
2019-03-16T18:13:34.929Z,33.37
2019-03-16T18:16:40.728Z,33.60
2019-03-16T18:19:46.813Z,33.79
2019-03-16T18:22:52.553Z,33.79
2019-03-16T18:25:58.391Z,34.03
2019-03-16T18:29:04.248Z,34.03
2019-03-16T18:32:10.152Z,33.72
2019-03-16T18:35:15.916Z,33.65
2019-03-16T18:38:21.708Z,33.50
2019-03-16T18:41:27.457Z,33.70
2019-03-16T18:44:33.231Z,33.79
2019-03-16T18:47:39.157Z,33.97
2019-03-16T18:50:46.001Z,33.97
2019-03-16T18:53:51.859Z,34.04
2019-03-16T18:56:57.617Z,34.06
2019-03-16T19:00:03.669Z,34.08
2019-03-16T19:03:11.677Z,34.47
2019-03-16T19:06:17.022Z,34.69
2019-03-16T19:09:23.259Z,34.70
2019-03-16T19:12:29.243Z,34.81
2019-03-16T19:15:35.071Z,34.85
2019-03-16T19:18:41.010Z,35.02
2019-03-16T19:21:46.917Z,35.01
2019-03-16T19:24:52.697Z,34.90
2019-03-16T19:27:58.631Z,34.90
2019-03-16T19:31:04.545Z,34.80
2019-03-16T19:34:10.478Z,34.88
2019-03-16T19:37:16.460Z,34.79
2019-03-16T19:40:22.411Z,34.98
2019-03-16T19:43:28.193Z,34.86
2019-03-16T19:46:34.019Z,34.88
2019-03-16T19:49:40.821Z,34.86
2019-03-16T19:52:46.834Z,34.84
2019-03-16T19:55:52.938Z,34.68
2019-03-16T19:59:00.872Z,34.52
2019-03-16T20:02:06.424Z,34.31
2019-03-16T20:05:12.582Z,34.24
2019-03-16T20:08:18.537Z,34.01
2019-03-16T20:11:24.584Z,33.76
2019-03-16T20:14:30.502Z,33.55
2019-03-16T20:17:36.431Z,33.44
2019-03-16T20:20:42.436Z,33.47
2019-03-16T20:23:48.288Z,33.51
2019-03-16T20:26:54.238Z,33.49
2019-03-16T20:29:59.985Z,33.38
2019-03-16T20:33:05.960Z,33.60
2019-03-16T20:36:11.770Z,33.44
2019-03-16T20:39:17.738Z,33.59
2019-03-16T20:42:23.561Z,33.82
2019-03-16T20:45:29.567Z,33.78
2019-03-16T20:48:35.619Z,33.59
2019-03-16T20:51:41.489Z,33.50
2019-03-16T20:54:47.275Z,33.65
2019-03-16T20:57:53.102Z,33.89
2019-03-16T21:00:58.992Z,34.21
2019-03-16T21:04:05.068Z,34.21
2019-03-16T21:07:10.848Z,34.30
2019-03-16T21:10:16.725Z,34.48
2019-03-16T21:13:22.409Z,34.55
2019-03-16T21:16:28.245Z,34.41
2019-03-16T21:19:34.167Z,34.77
2019-03-16T21:22:39.971Z,34.70
2019-03-16T21:25:46.052Z,34.74
2019-03-16T21:28:51.985Z,34.62
2019-03-16T21:31:58.438Z,34.59
2019-03-16T21:35:04.354Z,34.85
2019-03-16T21:38:10.146Z,35.09
2019-03-16T21:41:15.922Z,35.36
2019-03-16T21:44:21.868Z,35.15
2019-03-16T21:47:27.687Z,35.03
2019-03-16T21:50:33.583Z,35.19
2019-03-16T21:53:39.398Z,35.34
2019-03-16T21:56:45.317Z,35.30
2019-03-16T21:59:51.175Z,35.56
2019-03-16T22:02:56.929Z,35.26
2019-03-16T22:06:03.093Z,35.46
2019-03-16T22:09:09.914Z,35.41
2019-03-16T22:12:15.751Z,35.45
2019-03-16T22:15:21.507Z,35.71
2019-03-16T22:18:27.362Z,35.59
2019-03-16T22:21:33.221Z,35.71
2019-03-16T22:24:39.132Z,35.68
2019-03-16T22:27:45.054Z,35.61
2019-03-16T22:30:50.798Z,35.79
2019-03-16T22:33:56.657Z,35.79
2019-03-16T22:37:02.599Z,35.60
2019-03-16T22:40:08.642Z,35.49
2019-03-16T22:43:15.619Z,35.57
2019-03-16T22:46:21.585Z,35.41
2019-03-16T22:49:27.353Z,35.72
2019-03-16T22:52:33.320Z,35.77
2019-03-16T22:55:40.087Z,35.67
2019-03-16T22:58:45.881Z,35.57
2019-03-16T23:01:51.757Z,35.65
2019-03-16T23:04:57.530Z,35.58
2019-03-16T23:08:03.368Z,35.58
2019-03-16T23:11:09.133Z,35.69
2019-03-16T23:14:14.906Z,35.71
2019-03-16T23:17:20.608Z,35.62
2019-03-16T23:20:26.458Z,35.58
2019-03-16T23:23:32.399Z,35.45
2019-03-16T23:26:38.979Z,35.51
2019-03-16T23:29:44.984Z,35.47
2019-03-16T23:32:51.129Z,35.71
2019-03-16T23:35:57.314Z,35.83
2019-03-16T23:39:03.841Z,36.05
2019-03-16T23:42:09.673Z,36.33
2019-03-16T23:45:15.634Z,36.33
2019-03-16T23:48:21.470Z,36.22
2019-03-16T23:51:27.276Z,35.84
2019-03-16T23:54:33.206Z,35.95
2019-03-16T23:57:39.126Z,35.82
